Time;durP1;ratioP1;P1;durP2;ratioP2;P2;SDS_P1;SDS_P2;PMS_P1;PMS_P2;Temp;Humidity;BMP_temperature;BMP_pressure;BME280_temperature;BME280_humidity;BME280_pressure;Samples;Min_cycle;Max_cycle;Signal;HPM_P1;HPM_P2
2023/01/13 00:01:59;;;;;;;11.83;8.93;;;;;;;7.19;61.34;101864.09;5007739;28;20759;-75
2023/01/13 00:04:25;;;;;;;14.47;9.73;;;;;;;7.23;61.06;101875.25;5008372;28;20467;-75
2023/01/13 00:06:51;;;;;;;11.83;9.37;;;;;;;7.15;61.39;101875.00;5008118;28;20402;-75
2023/01/13 00:09:16;;;;;;;11.95;9.23;;;;;;;7.17;61.48;101875.72;5008314;28;20422;-75
2023/01/13 00:11:42;;;;;;;11.13;9.40;;;;;;;7.21;61.12;101878.00;5007440;28;20423;-75
2023/01/13 00:14:07;;;;;;;12.13;8.77;;;;;;;7.22;61.25;101874.41;5008270;28;20391;-75
2023/01/13 00:16:33;;;;;;;11.50;8.07;;;;;;;7.24;61.18;101884.84;5007822;28;20396;-75
2023/01/13 00:18:58;;;;;;;10.77;8.30;;;;;;;7.24;61.06;101880.41;5006767;28;20404;-74
2023/01/13 00:21:24;;;;;;;11.00;8.13;;;;;;;7.28;61.40;101884.47;5006245;28;20484;-75
2023/01/13 00:23:54;;;;;;;9.43;7.47;;;;;;;7.31;60.92;101883.41;5008525;28;20551;-75
2023/01/13 00:26:21;;;;;;;11.10;7.93;;;;;;;7.31;60.98;101880.78;5006693;28;20403;-75
2023/01/13 00:28:48;;;;;;;11.00;7.85;;;;;;;7.41;60.71;101879.06;5007444;28;20451;-75
2023/01/13 00:31:18;;;;;;;11.70;8.47;;;;;;;7.45;60.51;101879.66;5006721;28;20514;-75
2023/01/13 00:33:44;;;;;;;12.38;8.48;;;;;;;7.43;60.58;101882.44;5007781;28;20469;-75
2023/01/13 00:36:12;;;;;;;13.50;9.05;;;;;;;7.44;60.67;101884.13;5013562;28;20396;-75
2023/01/13 00:38:38;;;;;;;13.30;8.80;;;;;;;7.47;60.54;101883.03;5008570;28;20726;-75
2023/01/13 00:41:07;;;;;;;13.45;9.15;;;;;;;7.43;60.69;101882.44;5006998;28;20412;-75
2023/01/13 00:43:34;;;;;;;16.67;12.10;;;;;;;7.33;61.00;101889.41;5005645;28;20469;-75
2023/01/13 00:46:00;;;;;;;18.10;12.85;;;;;;;7.29;61.01;101887.94;5008232;28;20886;-75
2023/01/13 00:48:27;;;;;;;18.25;12.75;;;;;;;7.22;61.30;101894.66;5007080;28;20940;-75
2023/01/13 00:51:05;;;;;;;17.20;12.47;;;;;;;7.19;61.40;101887.81;5007552;28;20388;-74
2023/01/13 00:53:35;;;;;;;19.10;13.85;;;;;;;7.18;61.40;101877.41;5007996;28;20929;-75
2023/01/13 00:56:04;;;;;;;19.38;14.13;;;;;;;7.21;61.36;101883.28;5007783;28;20423;-74
2023/01/13 00:58:32;;;;;;;21.35;14.75;;;;;;;7.23;61.23;101884.00;5007380;28;20469;-75
2023/01/13 01:01:03;;;;;;;22.07;14.67;;;;;;;7.25;61.52;101876.78;5007047;28;20775;-74
2023/01/13 01:03:29;;;;;;;19.27;13.98;;;;;;;7.23;61.45;101877.88;5007207;28;20407;-74
2023/01/13 01:05:55;;;;;;;21.40;15.80;;;;;;;7.18;61.51;101872.13;5007326;28;20397;-74
2023/01/13 01:08:21;;;;;;;21.95;15.35;;;;;;;7.14;61.70;101875.97;5007575;28;20475;-74
2023/01/13 01:10:46;;;;;;;22.07;15.97;;;;;;;7.08;61.81;101869.38;5006769;28;20463;-74
2023/01/13 01:13:16;;;;;;;21.87;15.13;;;;;;;7.08;61.85;101866.72;5003652;28;20407;-74
2023/01/13 01:15:42;;;;;;;21.93;15.60;;;;;;;7.16;61.65;101868.78;5008436;28;20482;-74
2023/01/13 01:18:08;;;;;;;24.92;16.02;;;;;;;7.18;61.67;101869.47;5010351;28;20385;-74
2023/01/13 01:20:33;;;;;;;22.20;15.13;;;;;;;7.23;61.71;101872.59;5009454;28;20473;-74
2023/01/13 01:22:59;;;;;;;20.08;15.23;;;;;;;7.20;61.37;101860.50;5010362;28;20407;-74
2023/01/13 01:25:25;;;;;;;20.90;14.45;;;;;;;7.28;61.47;101863.38;5011283;28;20480;-73
2023/01/13 01:27:50;;;;;;;20.70;14.90;;;;;;;7.36;61.13;101862.75;5010387;28;20403;-73
2023/01/13 01:30:16;;;;;;;21.73;15.03;;;;;;;7.39;61.07;101864.34;5009638;28;20806;-73
2023/01/13 01:32:41;;;;;;;22.30;14.80;;;;;;;7.43;61.36;101860.50;5010338;28;20418;-74
2023/01/13 01:35:07;;;;;;;17.57;13.57;;;;;;;7.43;60.70;101866.59;5010558;28;20806;-73
2023/01/13 01:37:32;;;;;;;20.13;14.32;;;;;;;7.39;60.94;101851.16;5010241;28;20483;-73
2023/01/13 01:39:58;;;;;;;17.20;12.50;;;;;;;7.42;61.15;101861.47;5009644;28;20436;-73
2023/01/13 01:45:11;;;;;;;16.95;11.57;;;;;;;7.41;60.74;101857.13;5010421;28;20979;-74
2023/01/13 01:47:36;;;;;;;17.50;11.98;;;;;;;7.45;60.45;101858.56;5010282;28;20902;-74
2023/01/13 01:50:03;;;;;;;16.87;11.93;;;;;;;7.45;60.87;101850.66;5009788;28;20397;-75
2023/01/13 01:52:42;;;;;;;20.83;13.45;;;;;;;7.48;60.59;101855.69;5009869;28;20871;-75
2023/01/13 01:55:19;;;;;;;18.20;12.10;;;;;;;7.47;60.54;101844.31;5010396;28;20384;-75
2023/01/13 01:58:09;;;;;;;19.08;12.45;;;;;;;7.53;60.61;101850.06;5010080;28;20475;-74
2023/01/13 02:00:35;;;;;;;19.60;12.35;;;;;;;7.53;60.38;101840.34;5000859;28;20902;-74
2023/01/13 02:03:02;;;;;;;20.80;12.35;;;;;;;7.56;60.58;101845.38;5009600;28;20396;-75
2023/01/13 02:05:27;;;;;;;19.35;11.73;;;;;;;7.52;60.30;101843.09;5009788;28;20434;-73
2023/01/13 02:07:56;;;;;;;17.88;11.82;;;;;;;7.53;60.57;101845.63;5009494;28;20412;-75
2023/01/13 02:10:26;;;;;;;18.27;12.73;;;;;;;7.49;60.41;101851.25;5009769;28;20384;-73
2023/01/13 02:12:54;;;;;;;15.52;11.55;;;;;;;7.39;60.56;101837.97;5010205;28;20431;-75
2023/01/13 02:15:45;;;;;;;15.00;10.55;;;;;;;7.31;61.02;101838.56;5010283;28;20397;-75
2023/01/13 02:18:43;;;;;;;14.13;10.93;;;;;;;7.33;61.30;101846.34;5007285;28;20449;-75
2023/01/13 02:21:34;;;;;;;16.40;10.77;;;;;;;7.31;61.10;101841.22;5008580;28;20415;-75
2023/01/13 02:27:06;;;;;;;14.63;10.73;;;;;;;7.39;60.90;101830.88;4998993;28;20464;-74
2023/01/13 02:33:23;;;;;;;18.37;15.67;;;;;;;7.46;60.49;101829.44;5010446;28;20548;-73
2023/01/13 02:36:16;;;;;;;16.00;10.25;;;;;;;7.46;60.51;101832.06;5009479;28;20389;-73
2023/01/13 02:38:59;;;;;;;18.67;10.52;;;;;;;7.47;60.38;101825.84;4994316;28;20436;-73
2023/01/13 02:44:20;;;;;;;16.45;9.68;;;;;;;7.43;60.48;101826.19;5009321;28;20470;-73
2023/01/13 02:46:48;;;;;;;15.27;11.20;;;;;;;7.38;60.66;101834.50;5004282;28;20884;-73
2023/01/13 02:49:22;;;;;;;12.30;9.13;;;;;;;7.33;60.67;101827.88;5009516;28;20400;-73
2023/01/13 02:51:51;;;;;;;15.65;11.88;;;;;;;7.30;60.70;101831.59;5008452;28;20388;-73
2023/01/13 02:54:21;;;;;;;12.90;8.80;;;;;;;7.35;60.72;101829.44;5009100;28;20384;-73
2023/01/13 02:56:52;;;;;;;12.95;9.43;;;;;;;7.43;60.31;101836.75;5008768;28;20403;-73
2023/01/13 02:59:19;;;;;;;13.43;9.90;;;;;;;7.47;60.38;101839.03;5009266;28;20431;-73
2023/01/13 03:01:46;;;;;;;12.43;9.07;;;;;;;7.43;60.63;101829.66;5009068;28;20407;-73
2023/01/13 03:04:41;;;;;;;18.70;15.80;;;;;;;7.41;60.33;101825.47;5008676;28;20398;-73
2023/01/13 03:07:42;;;;;;;14.13;8.60;;;;;;;7.50;60.41;101837.09;5000427;28;20483;-74
2023/01/13 03:10:10;;;;;;;13.18;8.57;;;;;;;7.54;60.15;101836.72;5005821;28;20876;-74
2023/01/13 03:12:53;;;;;;;10.48;8.50;;;;;;;7.53;60.06;101836.88;5005844;28;20463;-73
2023/01/13 03:15:23;;;;;;;18.35;16.30;;;;;;;7.52;60.41;101838.66;5007763;28;20824;-74
2023/01/13 03:18:06;;;;;;;13.98;11.05;;;;;;;7.58;59.86;101837.31;5007565;28;20888;-73
2023/01/13 03:20:39;;;;;;;10.60;8.73;;;;;;;7.59;59.81;101833.72;5008019;28;20408;-73
2023/01/13 03:23:12;;;;;;;12.18;9.48;;;;;;;7.62;60.02;101836.13;5007420;28;20411;-74
2023/01/13 03:25:47;;;;;;;11.68;9.20;;;;;;;7.62;60.29;101830.84;5008682;28;20788;-74
2023/01/13 03:28:22;;;;;;;14.98;13.43;;;;;;;7.59;60.00;101831.94;5006995;28;20511;-74
2023/01/13 03:30:57;;;;;;;15.05;11.70;;;;;;;7.61;60.08;101831.81;4993741;28;20396;-74
2023/01/13 03:33:32;;;;;;;10.75;8.80;;;;;;;7.62;60.26;101833.50;5008398;28;20396;-73
2023/01/13 03:36:03;;;;;;;12.30;9.30;;;;;;;7.63;60.06;101827.25;5007994;28;20852;-73
2023/01/13 03:38:45;;;;;;;11.07;8.85;;;;;;;7.65;60.29;101831.44;5007821;28;20388;-73
2023/01/13 03:41:21;;;;;;;11.68;8.85;;;;;;;7.68;59.95;101827.72;5008262;28;20408;-74
2023/01/13 03:44:21;;;;;;;10.77;8.43;;;;;;;7.69;59.57;101836.47;5008403;28;20424;-74
2023/01/13 03:47:11;;;;;;;11.05;8.82;;;;;;;7.69;59.86;101832.03;5008503;28;20396;-74
2023/01/13 03:50:32;;;;;;;11.50;9.63;;;;;;;7.70;59.96;101832.88;5008238;28;20475;-74
2023/01/13 03:53:17;;;;;;;12.30;9.90;;;;;;;7.69;60.24;101842.59;4962656;28;20408;-74
2023/01/13 03:55:48;;;;;;;12.98;9.15;;;;;;;7.60;60.13;101845.97;5005265;28;20431;-74
2023/01/13 03:58:20;;;;;;;12.52;9.50;;;;;;;7.51;60.37;101838.78;5007855;28;20748;-74
2023/01/13 04:01:04;;;;;;;12.45;9.50;;;;;;;7.53;60.35;101845.63;4994533;28;20838;-74
2023/01/13 04:03:38;;;;;;;12.57;10.30;;;;;;;7.57;60.31;101841.75;5008004;28;20392;-74
2023/01/13 04:06:20;;;;;;;13.77;11.05;;;;;;;7.56;60.44;101842.75;5008040;28;20718;-74
2023/01/13 04:09:00;;;;;;;13.63;11.35;;;;;;;7.53;60.22;101837.69;5009321;28;20389;-74
2023/01/13 04:11:31;;;;;;;13.65;10.85;;;;;;;7.51;60.77;101846.69;5006455;28;20386;-74
2023/01/13 04:13:58;;;;;;;12.68;9.95;;;;;;;7.51;60.48;101850.19;5001652;28;20388;-74
2023/01/13 04:16:24;;;;;;;13.77;10.35;;;;;;;7.44;60.50;101851.63;5007483;28;20475;-74
2023/01/13 04:18:49;;;;;;;13.57;9.50;;;;;;;7.39;60.91;101853.78;5006932;28;20480;-75
2023/01/13 04:21:15;;;;;;;11.13;9.03;;;;;;;7.36;61.00;101852.22;5007780;28;20785;-74
2023/01/13 04:23:40;;;;;;;10.77;8.20;;;;;;;7.34;60.95;101854.13;5008236;28;20392;-74
2023/01/13 04:26:06;;;;;;;10.80;8.27;;;;;;;7.34;61.25;101858.59;5009110;28;20395;-74
2023/01/13 04:28:33;;;;;;;11.83;8.53;;;;;;;7.26;61.20;101851.28;5007542;28;20424;-74
2023/01/13 04:30:59;;;;;;;10.20;8.02;;;;;;;7.24;61.31;101856.66;5026705;28;20854;-74
2023/01/13 04:33:24;;;;;;;10.60;8.40;;;;;;;7.17;61.67;101849.38;5052491;28;20441;-75
2023/01/13 04:35:51;;;;;;;10.73;8.00;;;;;;;7.22;61.32;101860.38;5007801;28;20449;-74
2023/01/13 04:38:18;;;;;;;39.20;35.75;;;;;;;7.17;61.16;101857.28;5007687;28;20506;-74
2023/01/13 04:40:45;;;;;;;15.50;13.93;;;;;;;7.19;61.24;101863.25;5006731;28;20499;-74
2023/01/13 04:43:11;;;;;;;15.18;10.80;;;;;;;7.17;61.13;101870.47;5007822;28;20388;-74
2023/01/13 04:45:36;;;;;;;13.98;10.65;;;;;;;7.14;61.49;101865.41;5005616;28;20747;-74
2023/01/13 04:48:02;;;;;;;15.17;10.80;;;;;;;7.15;61.53;101870.56;5008356;28;20877;-74
2023/01/13 04:50:28;;;;;;;14.57;10.80;;;;;;;7.19;61.43;101865.91;5009313;28;20384;-75
2023/01/13 04:52:54;;;;;;;14.88;11.00;;;;;;;7.22;61.32;101870.91;5010832;28;20391;-74
2023/01/13 04:55:21;;;;;;;15.57;11.60;;;;;;;7.26;61.29;101875.84;5010778;28;20388;-74
2023/01/13 04:57:47;;;;;;;16.53;12.10;;;;;;;7.22;61.39;101869.13;5010640;28;20399;-74
2023/01/13 05:00:15;;;;;;;19.23;13.13;;;;;;;7.21;61.39;101872.72;5008285;28;20411;-75
2023/01/13 05:02:41;;;;;;;18.02;13.10;;;;;;;7.17;61.58;101866.03;5007367;28;20876;-74
2023/01/13 05:05:07;;;;;;;20.42;13.25;;;;;;;7.17;61.70;101866.03;5009021;28;20450;-73
2023/01/13 05:07:33;;;;;;;18.40;13.40;;;;;;;7.16;61.58;101864.31;5008022;28;20396;-74
2023/01/13 05:09:59;;;;;;;18.63;13.23;;;;;;;7.19;61.80;101872.00;5008920;28;20392;-73
2023/01/13 05:17:58;;;;;;;17.25;14.32;;;;;;;6.92;61.96;101872.34;5010078;28;20483;-74
2023/01/13 05:20:23;;;;;;;15.68;10.68;;;;;;;6.99;62.12;101885.91;5010099;28;20499;-74
2023/01/13 05:25:37;;;;;;;13.33;10.43;;;;;;;6.89;62.10;101883.94;5009004;28;20406;-73
2023/01/13 05:28:03;;;;;;;12.68;9.38;;;;;;;6.86;62.28;101885.97;5008990;28;20399;-73
2023/01/13 05:30:32;;;;;;;14.77;10.13;;;;;;;6.91;62.04;101878.56;5007437;28;20400;-74
2023/01/13 05:32:57;;;;;;;11.90;9.73;;;;;;;6.92;61.93;101884.69;5023309;28;20400;-74
2023/01/13 05:35:23;;;;;;;29.10;26.20;;;;;;;6.96;61.79;101892.22;5009135;28;20388;-75
2023/01/13 05:37:49;;;;;;;14.37;10.00;;;;;;;6.91;61.80;101883.81;5008958;28;20406;-74
2023/01/13 05:43:19;;;;;;;12.63;10.10;;;;;;;7.04;61.47;101887.22;5001132;28;20538;-74
2023/01/13 05:45:52;;;;;;;13.18;10.05;;;;;;;7.11;61.42;101889.38;5009934;28;20384;-75
2023/01/13 05:48:19;;;;;;;14.30;9.65;;;;;;;7.06;61.61;101890.56;5012663;28;20449;-75
2023/01/13 05:50:46;;;;;;;15.43;10.43;;;;;;;6.99;61.60;101883.25;5013379;28;20888;-74
2023/01/13 05:53:12;;;;;;;13.07;9.88;;;;;;;6.99;61.87;101894.63;5013118;28;20388;-74
2023/01/13 05:55:41;;;;;;;13.90;10.65;;;;;;;7.00;61.62;101896.31;5013111;28;21625;-74
2023/01/13 05:58:08;;;;;;;15.30;10.80;;;;;;;7.02;61.76;101890.91;5011900;28;20473;-74
2023/01/13 06:00:34;;;;;;;14.37;11.07;;;;;;;7.06;61.79;101881.84;5010083;28;20462;-74
2023/01/13 06:02:59;;;;;;;13.77;10.20;;;;;;;7.09;61.69;101886.84;5008085;28;20401;-74
2023/01/13 06:05:24;;;;;;;12.77;9.57;;;;;;;7.05;61.44;101880.97;5008371;28;20384;-74
2023/01/13 06:07:50;;;;;;;13.47;9.50;;;;;;;7.02;61.47;101881.22;5008412;28;21011;-74
2023/01/13 06:10:16;;;;;;;13.30;9.37;;;;;;;7.07;61.53;101881.69;5008052;28;20391;-73
2023/01/13 06:12:41;;;;;;;13.88;10.00;;;;;;;7.15;61.16;101889.03;5007841;28;20388;-74
2023/01/13 06:15:07;;;;;;;14.95;10.45;;;;;;;7.19;61.09;101889.63;5008944;28;20387;-74
2023/01/13 06:17:33;;;;;;;13.93;10.13;;;;;;;7.25;61.15;101894.41;5009407;28;20384;-74
2023/01/13 06:19:58;;;;;;;12.20;9.40;;;;;;;7.20;60.98;101888.66;5009758;28;20487;-74
2023/01/13 06:22:34;;;;;;;13.67;10.20;;;;;;;7.26;61.05;101893.47;5009183;28;20387;-74
2023/01/13 06:25:00;;;;;;;11.95;9.57;;;;;;;7.24;61.36;101901.50;5006100;28;20403;-74
2023/01/13 06:27:27;;;;;;;15.15;11.10;;;;;;;7.23;61.37;101901.63;4995711;28;20874;-73
2023/01/13 06:30:11;;;;;;;14.57;11.13;;;;;;;7.28;61.28;101907.38;5008591;28;20901;-74
2023/01/13 06:32:43;;;;;;;14.50;10.95;;;;;;;7.33;61.15;101905.22;5008801;28;20387;-76
2023/01/13 06:35:14;;;;;;;15.93;11.80;;;;;;;7.33;61.53;101901.72;5009951;28;20392;-76
2023/01/13 06:37:43;;;;;;;13.98;10.93;;;;;;;7.37;61.15;101903.19;5009383;28;20384;-74
2023/01/13 06:40:13;;;;;;;16.20;12.65;;;;;;;7.43;61.25;101907.97;5009245;28;20408;-74
2023/01/13 06:45:25;;;;;;;18.00;12.52;;;;;;;7.39;61.33;101907.38;5009930;28;20386;-74
2023/01/13 06:47:51;;;;;;;19.05;13.32;;;;;;;7.45;61.02;101898.13;5009961;28;20471;-75
2023/01/13 06:50:17;;;;;;;16.95;11.85;;;;;;;7.48;61.48;101897.91;5077452;28;20852;-75
2023/01/13 06:52:43;;;;;;;21.10;12.82;;;;;;;7.51;60.92;101902.09;5010953;28;20380;-75
2023/01/13 06:55:08;;;;;;;19.90;13.25;;;;;;;7.50;61.15;101897.78;5010793;28;20391;-75
2023/01/13 06:57:34;;;;;;;20.70;13.40;;;;;;;7.50;61.32;101903.06;5011189;28;20385;-74
2023/01/13 06:59:59;;;;;;;16.45;11.23;;;;;;;7.43;61.31;101905.34;5042000;28;20407;-74
2023/01/13 07:02:27;;;;;;;18.27;11.50;;;;;;;7.39;61.71;101898.63;5045936;27;20399;-74
2023/01/13 07:04:52;;;;;;;14.30;10.63;;;;;;;7.42;61.41;101899.22;5009548;28;20392;-74
2023/01/13 07:07:17;;;;;;;20.40;10.67;;;;;;;7.47;61.68;101902.34;5009820;28;20884;-75
2023/01/13 07:09:43;;;;;;;16.20;10.37;;;;;;;7.50;61.58;101905.72;5009955;28;20388;-74
2023/01/13 07:12:08;;;;;;;15.10;10.25;;;;;;;7.43;61.88;101900.91;5012329;28;20768;-74
2023/01/13 07:17:23;;;;;;;13.43;9.70;;;;;;;7.28;62.03;101908.22;4998700;28;20393;-74
2023/01/13 07:19:52;;;;;;;13.27;9.35;;;;;;;7.32;62.18;101915.91;5010928;28;20388;-74
2023/01/13 07:22:18;;;;;;;14.20;9.82;;;;;;;7.34;62.14;101911.34;5011601;28;20376;-74
2023/01/13 07:24:43;;;;;;;14.63;9.73;;;;;;;7.40;62.07;101916.97;5008896;28;20414;-74
2023/01/13 07:27:09;;;;;;;15.87;10.93;;;;;;;7.39;62.01;101903.91;5008799;28;20533;-75
2023/01/13 07:29:36;;;;;;;16.90;11.20;;;;;;;7.48;61.98;101908.47;5008022;28;20416;-74
2023/01/13 07:32:01;;;;;;;19.50;11.35;;;;;;;7.50;61.71;101921.53;5008829;28;20431;-74
2023/01/13 07:34:27;;;;;;;21.38;11.95;;;;;;;7.49;61.88;101919.84;5008098;28;20404;-75
2023/01/13 07:36:52;;;;;;;20.55;13.00;;;;;;;7.54;61.98;101925.59;5008982;28;20387;-75
2023/01/13 07:39:18;;;;;;;24.43;12.60;;;;;;;7.55;61.72;101929.94;5061203;28;20843;-74
2023/01/13 07:44:27;;;;;;;22.13;13.02;;;;;;;7.64;61.42;101929.22;5009010;28;20939;-74
2023/01/13 07:46:53;;;;;;;26.70;16.17;;;;;;;7.72;61.70;101934.72;5009171;28;20471;-74
2023/01/13 07:49:18;;;;;;;25.92;16.13;;;;;;;7.69;61.84;101926.19;5008575;28;20384;-74
2023/01/13 07:51:44;;;;;;;44.30;26.53;;;;;;;7.73;62.06;101931.13;5077654;28;20460;-75
2023/01/13 07:54:09;;;;;;;43.70;26.67;;;;;;;7.66;62.36;101930.75;5010177;28;20795;-75
2023/01/13 07:56:35;;;;;;;45.15;27.00;;;;;;;7.58;62.44;101940.22;5008585;28;20400;-75
2023/01/13 07:59:00;;;;;;;39.90;23.77;;;;;;;7.37;62.84;101938.31;5007936;28;20444;-73
2023/01/13 08:01:26;;;;;;;43.17;26.13;;;;;;;7.42;62.85;101940.63;5008986;28;20419;-74
2023/01/13 08:03:52;;;;;;;40.90;25.17;;;;;;;7.51;62.90;101931.97;5008765;28;20388;-74
2023/01/13 08:06:18;;;;;;;38.20;23.13;;;;;;;7.69;62.55;101942.03;5008887;28;20380;-74
2023/01/13 08:08:43;;;;;;;38.10;23.80;;;;;;;7.78;62.31;101938.69;5008258;28;20490;-73
2023/01/13 08:11:09;;;;;;;40.35;23.52;;;;;;;7.81;62.24;101946.34;5008430;28;20406;-74
2023/01/13 08:13:35;;;;;;;40.27;24.20;;;;;;;7.73;62.31;101946.13;5010108;28;20389;-74
2023/01/13 08:16:06;;;;;;;41.30;23.73;;;;;;;7.73;62.58;101952.22;5009347;28;20430;-74
2023/01/13 08:18:32;;;;;;;40.78;23.73;;;;;;;7.69;61.98;101950.81;5009549;28;20391;-75
2023/01/13 08:21:02;;;;;;;45.00;26.70;;;;;;;7.62;62.65;101957.53;5008169;28;20408;-75
2023/01/13 08:23:28;;;;;;;45.22;22.95;;;;;;;7.65;62.71;101958.13;4994986;28;20425;-74
2023/01/13 08:25:54;;;;;;;41.73;25.40;;;;;;;7.70;62.92;101944.53;4989325;28;20879;-74
2023/01/13 08:28:19;;;;;;;35.03;21.30;;;;;;;7.70;62.81;101947.19;4988559;28;20418;-75
2023/01/13 08:30:45;;;;;;;43.33;25.93;;;;;;;7.73;62.51;101946.13;4988545;28;20424;-74
2023/01/13 08:33:11;;;;;;;42.70;25.65;;;;;;;7.79;62.55;101951.75;5004132;28;20398;-75
2023/01/13 08:35:38;;;;;;;48.30;27.23;;;;;;;7.77;62.56;101960.75;4988690;28;20386;-75
2023/01/13 08:38:05;;;;;;;48.80;27.70;;;;;;;7.74;62.44;101955.72;4988081;28;20374;-75
2023/01/13 08:40:31;;;;;;;43.10;26.00;;;;;;;7.68;62.45;101957.03;4988383;28;20739;-75
2023/01/13 08:42:57;;;;;;;49.30;27.02;;;;;;;7.73;62.54;101959.31;4988223;28;20380;-75
2023/01/13 08:45:22;;;;;;;51.38;28.08;;;;;;;7.75;62.24;101950.31;4988647;28;20390;-75
2023/01/13 08:47:48;;;;;;;41.33;23.02;;;;;;;7.78;62.05;101949.25;4988347;28;20378;-74
2023/01/13 08:50:14;;;;;;;36.00;20.13;;;;;;;7.74;62.57;101953.06;4988713;28;20382;-74
2023/01/13 08:52:40;;;;;;;32.95;17.98;;;;;;;7.76;62.25;101951.13;4988153;28;20443;-75
2023/01/13 08:55:06;;;;;;;26.13;16.27;;;;;;;7.75;62.52;101947.66;4988415;28;20386;-74
2023/01/13 08:57:32;;;;;;;33.97;18.10;;;;;;;7.74;62.70;101947.78;4988437;28;20485;-74
2023/01/13 08:59:57;;;;;;;32.07;18.33;;;;;;;7.73;62.61;101951.41;4988071;28;20489;-74
2023/01/13 09:02:25;;;;;;;32.83;17.92;;;;;;;7.84;62.67;101956.66;4988287;28;20405;-74
2023/01/13 09:04:51;;;;;;;35.70;18.40;;;;;;;7.98;62.18;101945.84;4988393;28;20388;-74
2023/01/13 09:07:17;;;;;;;31.95;17.83;;;;;;;8.07;62.04;101948.69;4988006;28;20394;-74
2023/01/13 09:09:42;;;;;;;31.90;17.10;;;;;;;8.17;61.97;101955.75;4988389;28;20382;-74
2023/01/13 09:14:56;;;;;;;33.55;17.45;;;;;;;8.15;61.77;101941.84;4988421;28;20450;-75
2023/01/13 09:17:22;;;;;;;34.90;19.60;;;;;;;8.17;62.22;101950.47;4988190;28;20390;-76
2023/01/13 09:19:48;;;;;;;35.70;19.33;;;;;;;8.19;62.08;101942.44;4987743;28;20381;-73
2023/01/13 09:22:16;;;;;;;40.27;20.43;;;;;;;8.18;61.71;101946.06;4988069;28;20390;-75
2023/01/13 09:24:42;;;;;;;34.97;19.92;;;;;;;8.12;62.04;101939.47;4988085;28;20418;-74
2023/01/13 09:27:12;;;;;;;37.97;19.77;;;;;;;8.11;62.20;101934.31;4988198;28;20456;-74
2023/01/13 09:29:38;;;;;;;36.60;19.90;;;;;;;8.17;61.99;101937.28;4987671;28;20421;-74
2023/01/13 09:32:04;;;;;;;42.33;21.63;;;;;;;8.17;62.12;101934.63;4987691;28;20389;-75
2023/01/13 09:37:14;;;;;;;34.33;18.73;;;;;;;8.04;62.13;101937.44;4990853;28;21005;-74
2023/01/13 09:39:39;;;;;;;37.00;18.67;;;;;;;8.04;62.41;101933.94;4990932;28;20849;-74
2023/01/13 09:45:58;;;;;;;33.92;17.80;;;;;;;8.02;62.78;101928.78;4990856;28;20434;-74
2023/01/13 09:48:34;;;;;;;35.67;19.17;;;;;;;8.07;62.53;101925.78;4993001;28;20373;-75
2023/01/13 09:51:08;;;;;;;26.20;15.73;;;;;;;8.14;62.14;101926.13;4991401;28;20389;-75
2023/01/13 09:53:43;;;;;;;33.63;17.53;;;;;;;8.21;62.53;101924.66;4990821;28;20430;-75
2023/01/13 09:56:10;;;;;;;26.20;15.15;;;;;;;8.25;62.26;101926.09;5000481;28;20392;-74
2023/01/13 09:58:35;;;;;;;26.10;13.57;;;;;;;8.33;62.30;101918.38;5010658;28;20424;-74
2023/01/13 10:01:33;;;;;;;26.90;14.10;;;;;;;8.47;62.01;101921.75;5010852;28;20789;-73
2023/01/13 10:04:07;;;;;;;23.13;13.40;;;;;;;8.49;61.60;101918.00;5010059;28;20781;-74
2023/01/13 10:06:37;;;;;;;22.30;12.82;;;;;;;8.51;61.63;101910.78;5011655;28;20380;-74
2023/01/13 10:09:05;;;;;;;25.52;13.63;;;;;;;8.51;61.53;101905.47;5011386;28;20739;-74
2023/01/13 10:14:55;;;;;;;21.77;14.18;;;;;;;8.55;60.89;101908.72;5011043;28;20707;-76
2023/01/13 10:17:32;;;;;;;22.13;13.80;;;;;;;8.56;61.38;101910.41;5018055;28;20966;-75
2023/01/13 10:20:12;;;;;;;20.90;13.45;;;;;;;8.49;61.48;101903.94;5010013;28;20415;-74
2023/01/13 10:23:11;;;;;;;24.45;15.40;;;;;;;8.59;60.93;101900.41;5010247;28;20427;-74
2023/01/13 10:26:12;;;;;;;22.27;14.32;;;;;;;8.72;60.83;101902.88;5009522;28;20391;-74
2023/01/13 10:28:38;;;;;;;21.42;13.90;;;;;;;8.70;60.60;101896.88;5010083;28;20465;-74
2023/01/13 10:31:10;;;;;;;22.17;15.03;;;;;;;8.66;61.08;101894.59;5009195;28;20384;-76
2023/01/13 10:33:36;;;;;;;21.95;14.88;;;;;;;8.73;61.13;101901.06;5009755;28;20395;-75
2023/01/13 10:36:12;;;;;;;26.40;16.60;;;;;;;8.73;60.33;101896.63;5010037;28;20778;-74
2023/01/13 10:38:44;;;;;;;26.33;16.10;;;;;;;8.74;60.40;101895.63;5010356;28;20380;-75
2023/01/13 10:41:12;;;;;;;28.13;23.23;;;;;;;8.74;60.93;101877.13;5009919;28;20422;-75
2023/01/13 10:43:38;;;;;;;22.67;16.15;;;;;;;8.80;60.28;101883.72;5010028;28;20394;-73
2023/01/13 10:46:10;;;;;;;25.03;16.60;;;;;;;8.91;60.14;101878.38;5009350;28;20384;-75
2023/01/13 10:48:40;;;;;;;83.85;76.72;;;;;;;8.93;60.08;101871.13;5008717;28;20871;-77
2023/01/13 10:51:16;;;;;;;44.55;39.85;;;;;;;8.99;60.72;101877.72;5009380;28;20890;-74
2023/01/13 10:53:50;;;;;;;27.40;19.92;;;;;;;9.10;59.94;101874.16;5009842;28;20472;-74
2023/01/13 10:56:18;;;;;;;23.90;16.38;;;;;;;9.06;60.14;101872.75;5008900;28;20948;-75
2023/01/13 10:58:44;;;;;;;25.33;16.52;;;;;;;9.06;60.37;101875.38;5009282;28;20384;-75
2023/01/13 11:01:24;;;;;;;33.33;29.05;;;;;;;9.08;60.63;101868.97;5010009;28;20410;-75
2023/01/13 11:03:51;;;;;;;21.92;14.50;;;;;;;9.03;60.17;101862.41;5008568;28;20461;-74
2023/01/13 11:06:26;;;;;;;24.23;17.83;;;;;;;9.15;60.37;101864.00;5009486;28;20807;-74
2023/01/13 11:08:56;;;;;;;26.52;19.42;;;;;;;9.18;60.44;101867.22;5009953;28;20384;-77
2023/01/13 11:11:42;;;;;;;22.20;15.15;;;;;;;9.18;59.88;101863.72;5007454;28;20464;-76
2023/01/13 11:14:42;;;;;;;25.02;16.80;;;;;;;9.31;60.05;101874.09;5008519;28;20389;-75
2023/01/13 11:17:32;;;;;;;26.95;16.83;;;;;;;9.21;59.45;101867.94;5012039;28;20395;-73
2023/01/13 11:20:11;;;;;;;26.08;17.08;;;;;;;9.07;59.50;101862.00;5008737;28;20427;-78
2023/01/13 11:22:46;;;;;;;30.00;17.73;;;;;;;8.99;59.56;101862.66;5009606;28;20574;-77
2023/01/13 11:25:43;;;;;;;31.50;18.45;;;;;;;9.04;59.86;101859.66;5009298;28;20880;-77
2023/01/13 11:28:14;;;;;;;31.38;18.92;;;;;;;8.96;59.62;101855.00;5009439;28;20419;-76
2023/01/13 11:30:48;;;;;;;32.53;20.45;;;;;;;9.08;59.86;101855.75;5009265;28;20806;-75
2023/01/13 11:33:26;;;;;;;35.58;22.27;;;;;;;9.26;59.59;101860.44;5008703;28;20727;-77
2023/01/13 11:36:11;;;;;;;43.28;26.50;;;;;;;9.17;58.90;101846.19;5008642;28;20411;-75
2023/01/13 11:38:43;;;;;;;40.60;28.08;;;;;;;9.06;59.46;101846.28;5009005;28;20876;-74
2023/01/13 11:41:29;;;;;;;40.63;25.65;;;;;;;9.09;59.44;101857.44;5009391;28;20459;-74
2023/01/13 11:44:00;;;;;;;36.97;23.80;;;;;;;9.09;59.48;101859.22;5009295;28;20384;-74
2023/01/13 11:46:26;;;;;;;38.25;25.60;;;;;;;9.08;59.78;101844.34;5008724;28;20392;-75
2023/01/13 11:48:55;;;;;;;44.10;29.33;;;;;;;9.13;59.35;101850.09;5008053;28;21064;-75
2023/01/13 11:52:03;;;;;;;52.00;31.98;;;;;;;9.16;59.43;101850.66;5008539;28;20403;-75
2023/01/13 11:54:46;;;;;;;44.50;30.08;;;;;;;8.97;59.57;101840.81;5009139;28;20871;-74
2023/01/13 11:57:34;;;;;;;39.80;27.17;;;;;;;9.11;59.34;101844.06;5008482;28;20752;-77
2023/01/13 12:00:23;;;;;;;36.45;23.17;;;;;;;9.21;59.25;101839.66;5009098;28;20384;-74
2023/01/13 12:03:07;;;;;;;34.03;22.35;;;;;;;9.32;59.10;101839.56;5029089;28;20388;-75
2023/01/13 12:05:41;;;;;;;28.65;18.73;;;;;;;9.34;58.97;101839.44;5008585;28;20740;-75
2023/01/13 12:08:10;;;;;;;22.87;15.53;;;;;;;9.35;59.34;101835.81;5008928;28;20400;-74
2023/01/13 12:11:00;;;;;;;25.05;15.68;;;;;;;9.30;58.72;101843.31;5008753;28;20387;-75
2023/01/13 12:13:51;;;;;;;25.58;17.15;;;;;;;9.43;58.70;101838.63;5008377;28;20379;-76
2023/01/13 12:16:25;;;;;;;27.27;17.02;;;;;;;9.50;58.96;101838.91;5008145;28;20410;-76
2023/01/13 12:19:15;;;;;;;23.50;15.55;;;;;;;9.59;58.92;101832.81;5008767;28;20906;-77
2023/01/13 12:22:16;;;;;;;24.40;17.23;;;;;;;9.60;58.73;101821.25;5008303;28;20419;-75